createdAt,value
2023-04-21T00:02:01.114Z,50324.78
2023-04-21T00:04:29.548Z,50336.38
2023-04-21T00:07:02.212Z,50335.18
2023-04-21T00:09:30.757Z,50318.79
2023-04-21T00:11:59.369Z,50312.79
2023-04-21T00:14:27.607Z,50319.18
2023-04-21T00:16:56.034Z,50313.98
2023-04-21T00:19:24.697Z,50312.78
2023-04-21T00:21:58.935Z,50319.98
2023-04-21T00:24:27.436Z,50324.78
2023-04-21T00:26:55.606Z,50315.59
2023-04-21T00:29:24.530Z,50312.38
2023-04-21T00:31:53.246Z,50319.18
2023-04-21T00:34:21.576Z,50309.98
2023-04-21T00:36:49.761Z,50318.39
2023-04-21T00:39:18.090Z,50327.98
2023-04-21T00:41:48.411Z,50320.78
2023-04-21T00:44:16.722Z,50326.38
2023-04-21T00:46:47.253Z,50322.38
2023-04-21T00:49:17.386Z,50314.79
2023-04-21T00:51:46.118Z,50308.79
2023-04-21T00:54:14.439Z,50327.18
2023-04-21T00:56:42.719Z,50332.78
2023-04-21T00:59:11.113Z,50302.39
2023-04-21T01:01:40.242Z,50317.99
2023-04-21T01:04:10.671Z,50309.99
2023-04-21T01:06:39.172Z,50315.59
2023-04-21T01:09:07.400Z,50325.18
2023-04-21T01:11:39.242Z,50313.59
2023-04-21T01:14:09.087Z,50332.78
2023-04-21T01:16:40.091Z,50318.79
2023-04-21T01:19:08.715Z,50310.79
2023-04-21T01:21:43.338Z,50324.78
2023-04-21T01:24:12.060Z,50316.79
2023-04-21T01:26:40.487Z,50330.78
2023-04-21T01:29:08.691Z,50317.18
2023-04-21T01:31:36.892Z,50327.98
2023-04-21T01:34:05.485Z,50306.39
2023-04-21T01:36:34.047Z,50315.18
2023-04-21T01:39:02.403Z,50330.78
2023-04-21T01:41:31.382Z,50330.38
2023-04-21T01:43:59.691Z,50323.58
2023-04-21T01:46:28.190Z,50318.79
2023-04-21T01:48:57.963Z,50314.79
2023-04-21T01:51:27.287Z,50333.98
2023-04-21T01:53:55.533Z,50314.38
2023-04-21T01:56:25.298Z,50323.98
2023-04-21T01:58:53.506Z,50338.78
2023-04-21T02:01:21.748Z,50332.78
2023-04-21T02:03:50.149Z,50322.78
2023-04-21T02:06:18.565Z,50332.78
2023-04-21T02:08:47.796Z,50345.98
2023-04-21T02:11:16.866Z,50305.19
2023-04-21T02:13:46.914Z,50308.79
2023-04-21T02:16:15.563Z,50312.79
2023-04-21T02:18:48.680Z,50331.58
2023-04-21T02:21:16.937Z,50335.58
2023-04-21T02:23:45.125Z,50315.98
2023-04-21T02:26:13.366Z,50333.58
2023-04-21T02:28:41.853Z,50317.99
2023-04-21T02:31:10.559Z,50324.38
2023-04-21T02:33:38.777Z,50337.58
2023-04-21T02:36:07.476Z,50325.98
2023-04-21T02:38:35.766Z,50333.18
2023-04-21T02:41:04.082Z,50322.78
2023-04-21T02:43:32.876Z,50328.78
2023-04-21T02:46:06.589Z,50328.78
2023-04-21T02:48:38.163Z,50336.38
2023-04-21T02:51:15.642Z,50344.77
2023-04-21T02:53:43.894Z,50337.18
2023-04-21T02:56:12.219Z,50322.38
2023-04-21T02:58:41.181Z,50316.79
2023-04-21T03:01:09.547Z,50315.98
2023-04-21T03:03:37.961Z,50339.58
2023-04-21T03:06:06.600Z,50339.98
2023-04-21T03:08:34.824Z,50325.98
2023-04-21T03:11:03.028Z,50335.98
2023-04-21T03:13:32.412Z,50327.58
2023-04-21T03:16:00.611Z,50330.78
2023-04-21T03:18:28.899Z,50322.79
2023-04-21T03:21:01.620Z,50332.38
2023-04-21T03:23:29.795Z,50329.98
2023-04-21T03:25:58.634Z,50330.38
2023-04-21T03:28:26.937Z,50328.38
2023-04-21T03:30:55.087Z,50320.78
2023-04-21T03:33:23.321Z,50319.58
2023-04-21T03:35:51.518Z,50309.59
2023-04-21T03:38:19.728Z,50329.18
2023-04-21T03:40:48.148Z,50342.38
2023-04-21T03:43:16.378Z,50307.19
2023-04-21T03:45:44.710Z,50319.59
2023-04-21T03:48:13.561Z,50314.39
2023-04-21T03:50:41.873Z,50317.19
2023-04-21T03:53:10.147Z,50306.79
2023-04-21T03:55:38.483Z,50309.99
2023-04-21T03:58:08.226Z,50328.78
2023-04-21T04:00:36.468Z,50308.39
2023-04-21T04:03:04.720Z,50324.38
2023-04-21T04:05:33.057Z,50315.18
2023-04-21T04:08:03.231Z,50319.19
2023-04-21T04:10:31.724Z,50339.98
2023-04-21T04:13:00.062Z,50331.98
2023-04-21T04:15:28.488Z,50321.98
2023-04-21T04:17:57.142Z,50322.38
2023-04-21T04:20:25.549Z,50341.98
2023-04-21T04:22:54.587Z,50335.18
2023-04-21T04:25:22.945Z,50328.78
2023-04-21T04:27:51.111Z,50329.58
2023-04-21T04:30:20.274Z,50324.38
2023-04-21T04:32:49.661Z,50312.79
2023-04-21T04:35:18.578Z,50311.19
2023-04-21T04:37:47.072Z,50319.59
2023-04-21T04:40:15.931Z,50319.19
2023-04-21T04:42:46.325Z,50328.78
2023-04-21T04:45:16.858Z,50308.79
2023-04-21T04:47:46.014Z,50327.18
2023-04-21T04:50:14.602Z,50322.78
2023-04-21T04:52:47.703Z,50318.38
2023-04-21T04:55:15.881Z,50321.98
2023-04-21T04:57:46.426Z,50326.38
2023-04-21T05:00:15.312Z,50332.38
2023-04-21T05:02:43.894Z,50324.38
2023-04-21T05:05:13.755Z,50317.98
2023-04-21T05:07:43.114Z,50308.39
2023-04-21T05:10:11.382Z,50321.58
2023-04-21T05:12:40.391Z,50317.18
2023-04-21T05:15:09.270Z,50324.39
2023-04-21T05:17:38.001Z,50319.19
2023-04-21T05:20:08.286Z,50299.99
2023-04-21T05:22:40.124Z,50331.18
2023-04-21T05:25:12.747Z,50297.19
2023-04-21T05:27:42.518Z,50313.18
2023-04-21T05:30:11.164Z,50311.99
2023-04-21T05:32:39.791Z,50325.59
2023-04-21T05:35:09.452Z,50299.59
2023-04-21T05:37:38.524Z,50314.79
2023-04-21T05:40:07.317Z,50324.78
2023-04-21T05:42:36.302Z,50312.38
2023-04-21T05:45:05.766Z,50327.98
2023-04-21T05:47:34.360Z,50323.98
2023-04-21T05:50:02.758Z,50317.98
2023-04-21T05:52:30.988Z,50305.99
2023-04-21T05:54:59.925Z,50306.79
2023-04-21T05:57:28.235Z,50314.38
2023-04-21T05:59:58.809Z,50318.79
2023-04-21T06:02:29.402Z,50327.18
2023-04-21T06:04:58.581Z,50326.38
2023-04-21T06:07:28.768Z,50313.59
2023-04-21T06:09:58.178Z,50312.79
2023-04-21T06:12:26.378Z,50312.39
2023-04-21T06:14:57.866Z,50319.18
2023-04-21T06:17:26.458Z,50317.59
2023-04-21T06:19:56.485Z,50293.99
2023-04-21T06:22:26.052Z,50312.39
2023-04-21T06:24:54.657Z,50312.79
2023-04-21T06:27:22.871Z,50331.18
2023-04-21T06:29:56.051Z,50305.19
2023-04-21T06:32:25.356Z,50322.79
2023-04-21T06:34:53.747Z,50313.59
2023-04-21T06:37:22.374Z,50308.79
2023-04-21T06:39:51.515Z,50300.79
2023-04-21T06:42:21.885Z,50308.39
2023-04-21T06:44:50.929Z,50316.79
2023-04-21T06:47:19.569Z,50297.99
2023-04-21T06:49:47.885Z,50304.79
2023-04-21T06:52:17.714Z,50313.59
2023-04-21T06:54:46.532Z,50308.79
2023-04-21T06:57:15.507Z,50315.18
2023-04-21T06:59:45.147Z,50302.79
2023-04-21T07:02:13.388Z,50309.19
2023-04-21T07:04:42.187Z,50318.38
2023-04-21T07:07:10.834Z,50319.99
2023-04-21T07:09:39.051Z,50309.19
2023-04-21T07:12:09.948Z,50315.59
2023-04-21T07:14:38.318Z,50311.98
2023-04-21T07:17:07.370Z,50302.79
2023-04-21T07:19:38.752Z,50301.99
2023-04-21T07:22:09.604Z,50300.39
2023-04-21T07:24:37.974Z,50317.18
2023-04-21T07:27:06.636Z,50309.19
2023-04-21T07:29:34.808Z,50299.99
2023-04-21T07:32:03.217Z,50308.39
2023-04-21T07:34:31.448Z,50284.39
2023-04-21T07:36:59.669Z,50309.59
2023-04-21T07:39:29.049Z,50317.18
2023-04-21T07:41:57.297Z,50303.99
2023-04-21T07:44:29.645Z,50295.19
2023-04-21T07:46:57.933Z,50309.59
2023-04-21T07:49:26.384Z,50278.40
2023-04-21T07:51:54.603Z,50280.39
2023-04-21T07:54:22.895Z,50294.39
2023-04-21T07:56:51.097Z,50282.40
2023-04-21T07:59:19.480Z,50298.39
2023-04-21T08:01:48.253Z,50293.99
2023-04-21T08:04:16.636Z,50287.99
2023-04-21T08:06:45.879Z,50304.39
2023-04-21T08:09:14.327Z,50291.20
2023-04-21T08:11:45.635Z,50281.20
2023-04-21T08:14:14.046Z,50286.40
2023-04-21T08:16:42.571Z,50285.59
2023-04-21T08:19:11.132Z,50266.40
2023-04-21T08:21:39.894Z,50287.20
2023-04-21T08:24:08.244Z,50280.00
2023-04-21T08:26:36.548Z,50284.00
2023-04-21T08:29:07.503Z,50281.20
2023-04-21T08:31:35.922Z,50262.80
2023-04-21T08:34:04.716Z,50290.79
2023-04-21T08:36:33.672Z,50276.80
2023-04-21T08:39:01.995Z,50285.20
2023-04-21T08:41:30.373Z,50283.99
2023-04-21T08:43:58.652Z,50274.80
2023-04-21T08:46:30.493Z,50256.41
2023-04-21T08:49:01.547Z,50278.39
2023-04-21T08:51:34.046Z,50278.80
2023-04-21T08:54:02.344Z,50287.19
2023-04-21T08:56:30.601Z,50270.00
2023-04-21T08:58:59.248Z,50298.39
2023-04-21T09:01:27.768Z,50282.80
2023-04-21T09:04:18.461Z,50281.20
2023-04-21T09:06:48.493Z,50297.19
2023-04-21T09:09:17.411Z,50289.59
2023-04-21T09:11:58.756Z,50290.39
2023-04-21T09:14:34.426Z,50288.79
2023-04-21T09:17:04.364Z,50281.59
2023-04-21T09:19:36.873Z,50303.19
2023-04-21T09:22:06.133Z,50293.99
2023-04-21T09:24:34.803Z,50277.20
2023-04-21T09:27:04.999Z,50258.80
2023-04-21T09:29:37.665Z,50274.80
2023-04-21T09:32:11.885Z,50250.41
2023-04-21T09:34:44.373Z,50268.00
2023-04-21T09:37:16.599Z,50256.80
2023-04-21T09:40:03.513Z,50276.40
2023-04-21T09:42:36.929Z,50270.00
2023-04-21T09:45:29.060Z,50266.40
2023-04-21T09:48:01.965Z,50277.20
2023-04-21T09:53:21.370Z,50268.00
2023-04-21T09:55:54.771Z,50270.80
2023-04-21T09:58:27.115Z,50250.41
2023-04-21T10:00:58.022Z,50275.20
2023-04-21T10:03:29.070Z,50273.20
2023-04-21T10:05:57.971Z,50262.80
2023-04-21T10:08:27.065Z,50258.00
2023-04-21T10:10:55.551Z,50256.01
2023-04-21T10:13:25.320Z,50270.80
2023-04-21T10:16:07.850Z,50250.41
2023-04-21T10:18:38.827Z,50243.21
2023-04-21T10:21:25.249Z,50248.01
2023-04-21T10:23:54.182Z,50244.41
2023-04-21T10:26:36.756Z,50258.41
2023-04-21T10:29:07.120Z,50230.41
2023-04-21T10:31:36.952Z,50241.21
2023-04-21T10:34:14.273Z,50263.20
2023-04-21T10:36:54.237Z,50250.41
2023-04-21T10:39:45.464Z,50264.80
2023-04-21T10:42:16.502Z,50261.21
2023-04-21T10:44:51.273Z,50248.80
2023-04-21T10:47:32.004Z,50263.60
2023-04-21T10:50:12.150Z,50260.80
2023-04-21T10:52:44.415Z,50262.40
2023-04-21T10:55:15.944Z,50263.20
2023-04-21T10:57:45.779Z,50270.00
2023-04-21T11:00:20.355Z,50272.40
2023-04-21T11:02:56.178Z,50268.00
2023-04-21T11:05:28.742Z,50261.60
2023-04-21T11:08:13.150Z,50259.61
2023-04-21T11:10:50.404Z,50265.61
2023-04-21T11:13:26.813Z,50264.80
2023-04-21T11:16:06.380Z,50262.40
2023-04-21T11:18:39.106Z,50247.21
2023-04-21T11:21:18.756Z,50258.80
2023-04-21T11:23:58.016Z,50264.00
2023-04-21T11:26:35.215Z,50286.39
2023-04-21T11:29:08.770Z,50266.40
2023-04-21T11:31:38.935Z,50266.40
2023-04-21T11:34:08.106Z,50281.60
2023-04-21T11:36:41.831Z,50278.00
2023-04-21T11:39:12.473Z,50254.01
2023-04-21T11:41:43.391Z,50264.40
2023-04-21T11:44:14.125Z,50262.01
2023-04-21T11:46:49.523Z,50252.41
2023-04-21T11:49:18.601Z,50252.41
2023-04-21T11:51:47.046Z,50249.21
2023-04-21T11:54:18.034Z,50258.80
2023-04-21T11:56:48.545Z,50260.80
2023-04-21T11:59:19.872Z,50258.40
2023-04-21T12:01:51.258Z,50244.41
2023-04-21T12:04:22.726Z,50249.21
2023-04-21T12:07:01.920Z,50238.41
2023-04-21T12:09:31.060Z,50266.80
2023-04-21T12:12:04.977Z,50255.21
2023-04-21T12:14:39.351Z,50258.40
2023-04-21T12:17:08.460Z,50246.41
2023-04-21T12:19:41.884Z,50257.61
2023-04-21T12:22:12.568Z,50245.61
2023-04-21T12:24:42.312Z,50253.21
2023-04-21T12:27:14.351Z,50264.40
2023-04-21T12:29:42.835Z,50270.00
2023-04-21T12:32:11.340Z,50276.00
2023-04-21T12:34:39.646Z,50274.80
2023-04-21T12:37:07.875Z,50253.21
2023-04-21T12:39:36.184Z,50254.01
2023-04-21T12:42:04.634Z,50235.61
2023-04-21T12:44:32.892Z,50231.21
2023-04-21T12:47:01.330Z,50226.81
2023-04-21T12:49:31.508Z,50249.21
2023-04-21T12:52:00.131Z,50240.01
2023-04-21T12:54:29.501Z,50246.41
2023-04-21T12:56:58.329Z,50255.21
2023-04-21T12:59:26.843Z,50247.61
2023-04-21T13:01:55.944Z,50244.01
2023-04-21T13:04:25.182Z,50236.41
2023-04-21T13:06:54.500Z,50244.80
2023-04-21T13:09:22.828Z,50239.61
2023-04-21T13:11:52.006Z,50225.62
2023-04-21T13:14:20.568Z,50228.01
2023-04-21T13:16:50.054Z,50221.61
2023-04-21T13:19:18.336Z,50215.62
2023-04-21T13:21:54.287Z,50240.01
2023-04-21T13:24:23.328Z,50242.80
2023-04-21T13:26:51.601Z,50247.61
2023-04-21T13:29:19.832Z,50230.41
2023-04-21T13:31:48.307Z,50231.21
2023-04-21T13:34:16.470Z,50229.62
2023-04-21T13:36:44.785Z,50240.41
2023-04-21T13:39:13.189Z,50233.21
2023-04-21T13:41:41.477Z,50244.01
2023-04-21T13:44:10.388Z,50238.01
2023-04-21T13:46:38.824Z,50233.61
2023-04-21T13:49:07.702Z,50261.60
2023-04-21T13:51:36.868Z,50240.41
2023-04-21T13:54:05.937Z,50234.41
2023-04-21T13:56:34.202Z,50212.82
2023-04-21T13:59:02.617Z,50222.82
2023-04-21T14:01:31.184Z,50218.02
2023-04-21T14:03:59.700Z,50235.61
2023-04-21T14:06:28.243Z,50235.21
2023-04-21T14:08:59.147Z,50246.81
2023-04-21T14:11:27.592Z,50224.82
2023-04-21T14:14:09.093Z,50242.41
2023-04-21T14:16:39.118Z,50250.80
2023-04-21T14:19:10.435Z,50235.61
2023-04-21T14:21:38.767Z,50253.21
2023-04-21T14:24:07.670Z,50253.61
2023-04-21T14:26:36.357Z,50246.81
2023-04-21T14:29:06.888Z,50248.01
2023-04-21T14:31:35.428Z,50254.41
2023-04-21T14:34:03.865Z,50245.21
2023-04-21T14:36:32.314Z,50260.41
2023-04-21T14:39:02.250Z,50242.80
2023-04-21T14:41:31.142Z,50246.01
2023-04-21T14:44:00.600Z,50236.81
2023-04-21T14:46:29.402Z,50268.80
2023-04-21T14:48:57.887Z,50249.21
2023-04-21T14:51:26.463Z,50256.01
2023-04-21T14:53:54.707Z,50255.61
2023-04-21T14:56:25.486Z,50264.80
2023-04-21T14:58:54.953Z,50260.80
2023-04-21T15:01:25.806Z,50242.41
2023-04-21T15:03:54.726Z,50251.21
2023-04-21T15:06:23.351Z,50253.61
2023-04-21T15:08:51.892Z,50262.40
2023-04-21T15:11:23.461Z,50250.01
2023-04-21T15:13:52.010Z,50252.41
2023-04-21T15:16:20.535Z,50254.80
2023-04-21T15:18:48.891Z,50249.61
2023-04-21T15:21:19.974Z,50247.21
2023-04-21T15:23:48.344Z,50250.01
2023-04-21T15:26:16.733Z,50253.61
2023-04-21T15:28:45.181Z,50253.61
2023-04-21T15:31:13.547Z,50262.80
2023-04-21T15:33:42.143Z,50251.61
2023-04-21T15:36:12.900Z,50264.00
2023-04-21T15:38:41.907Z,50256.41
2023-04-21T15:41:10.787Z,50249.61
2023-04-21T15:43:39.177Z,50258.80
2023-04-21T15:46:13.380Z,50247.61
2023-04-21T15:48:42.633Z,50258.41
2023-04-21T15:51:11.177Z,50256.01
2023-04-21T15:53:44.287Z,50257.61
2023-04-21T15:56:15.064Z,50247.21
2023-04-21T15:58:46.814Z,50241.61
2023-04-21T16:01:15.607Z,50246.01
2023-04-21T16:03:44.338Z,50269.20
2023-04-21T16:06:16.029Z,50264.40
2023-04-21T16:08:45.189Z,50240.81
2023-04-21T16:11:14.070Z,50220.02
2023-04-21T16:13:42.515Z,50251.61
2023-04-21T16:16:10.808Z,50237.21
2023-04-21T16:18:39.230Z,50231.21
2023-04-21T16:21:07.509Z,50253.61
2023-04-21T16:23:38.185Z,50252.41
2023-04-21T16:26:09.265Z,50248.41
2023-04-21T16:28:37.689Z,50234.01
2023-04-21T16:31:08.312Z,50243.61
2023-04-21T16:33:36.569Z,50259.20
2023-04-21T16:36:06.009Z,50244.41
2023-04-21T16:38:34.448Z,50252.01
2023-04-21T16:41:02.927Z,50271.20
2023-04-21T16:43:31.296Z,50262.80
2023-04-21T16:45:59.651Z,50268.80
2023-04-21T16:48:28.281Z,50264.40
2023-04-21T16:50:56.845Z,50270.00
2023-04-21T16:53:26.016Z,50275.60
2023-04-21T16:55:55.053Z,50270.80
2023-04-21T16:58:24.715Z,50266.80
2023-04-21T17:00:56.018Z,50269.20
2023-04-21T17:03:30.885Z,50276.80
2023-04-21T17:06:01.217Z,50293.99
2023-04-21T17:08:31.925Z,50271.20
2023-04-21T17:11:00.314Z,50290.79
2023-04-21T17:13:28.927Z,50269.20
2023-04-21T17:15:59.088Z,50273.60
2023-04-21T17:18:27.329Z,50279.20
2023-04-21T17:20:55.719Z,50293.59
2023-04-21T17:23:24.045Z,50290.79
2023-04-21T17:25:52.392Z,50297.99
2023-04-21T17:28:20.976Z,50289.20
2023-04-21T17:30:51.681Z,50287.59
2023-04-21T17:33:21.752Z,50291.99
2023-04-21T17:36:02.780Z,50286.79
2023-04-21T17:38:32.371Z,50299.99
2023-04-21T17:41:02.159Z,50289.20
2023-04-21T17:43:30.620Z,50307.99
2023-04-21T17:45:59.003Z,50307.59
2023-04-21T17:48:27.833Z,50293.59
2023-04-21T17:50:56.443Z,50291.99
2023-04-21T17:53:24.729Z,50306.79
2023-04-21T17:55:55.972Z,50324.38
2023-04-21T17:58:26.811Z,50301.59
2023-04-21T18:00:55.278Z,50306.39
2023-04-21T18:03:24.051Z,50306.79
2023-04-21T18:05:56.018Z,50301.99
2023-04-21T18:08:24.815Z,50287.20
2023-04-21T18:10:55.612Z,50285.20
2023-04-21T18:13:24.040Z,50302.79
2023-04-21T18:15:52.348Z,50299.99
2023-04-21T18:18:21.162Z,50311.99
2023-04-21T18:20:50.177Z,50295.59
2023-04-21T18:23:18.375Z,50297.59
2023-04-21T18:25:50.354Z,50280.00
2023-04-21T18:28:18.769Z,50315.18
2023-04-21T18:30:47.680Z,50301.99
2023-04-21T18:33:18.677Z,50295.59
2023-04-21T18:35:46.976Z,50295.99
2023-04-21T18:38:16.575Z,50307.98
2023-04-21T18:40:44.801Z,50301.99
2023-04-21T18:43:16.203Z,50292.79
2023-04-21T18:45:44.468Z,50305.19
2023-04-21T18:48:12.793Z,50313.98
2023-04-21T18:50:41.401Z,50313.99
2023-04-21T18:53:12.670Z,50323.98
2023-04-21T18:55:41.071Z,50308.79
2023-04-21T18:58:09.312Z,50315.59
2023-04-21T19:00:39.301Z,50311.59
2023-04-21T19:03:08.779Z,50317.98
2023-04-21T19:05:38.508Z,50315.59
2023-04-21T19:08:09.487Z,50304.79
2023-04-21T19:10:38.720Z,50311.59
2023-04-21T19:13:07.082Z,50317.59
2023-04-21T19:15:35.726Z,50321.18
2023-04-21T19:18:04.530Z,50307.19
2023-04-21T19:20:33.120Z,50319.18
2023-04-21T19:23:01.847Z,50296.39
2023-04-21T19:25:31.968Z,50293.99
2023-04-21T19:28:01.392Z,50308.79
2023-04-21T19:30:29.645Z,50296.39
2023-04-21T19:32:58.543Z,50305.19
2023-04-21T19:35:27.371Z,50305.99
2023-04-21T19:37:55.656Z,50317.98
2023-04-21T19:40:24.288Z,50318.78
2023-04-21T19:42:52.550Z,50300.39
2023-04-21T19:45:21.051Z,50319.98
2023-04-21T19:47:49.783Z,50317.98
2023-04-21T19:50:23.127Z,50307.59
2023-04-21T19:52:51.358Z,50308.79
2023-04-21T19:55:19.685Z,50307.99
2023-04-21T19:57:47.884Z,50325.18
2023-04-21T20:00:16.992Z,50307.59
2023-04-21T20:02:45.684Z,50319.98
2023-04-21T20:05:14.240Z,50292.39
2023-04-21T20:07:42.465Z,50321.58
2023-04-21T20:10:11.214Z,50323.98
2023-04-21T20:12:39.423Z,50313.19
2023-04-21T20:15:08.633Z,50310.38
2023-04-21T20:17:38.427Z,50305.59
2023-04-21T20:20:07.334Z,50324.38
2023-04-21T20:22:36.184Z,50316.79
2023-04-21T20:25:05.041Z,50307.19
2023-04-21T20:27:34.364Z,50329.58
2023-04-21T20:30:03.057Z,50298.79
2023-04-21T20:32:31.706Z,50323.98
2023-04-21T20:34:59.909Z,50319.98
2023-04-21T20:37:28.530Z,50307.99
2023-04-21T20:40:00.567Z,50339.98
2023-04-21T20:42:28.888Z,50321.98
2023-04-21T20:44:57.240Z,50332.78
2023-04-21T20:47:25.698Z,50333.98
2023-04-21T20:49:54.940Z,50318.79
2023-04-21T20:52:23.386Z,50321.98
2023-04-21T20:54:51.648Z,50338.38
2023-04-21T20:57:19.888Z,50339.58
2023-04-21T20:59:48.044Z,50326.78
2023-04-21T21:02:16.422Z,50332.38
2023-04-21T21:04:47.378Z,50327.58
2023-04-21T21:07:15.903Z,50318.38
2023-04-21T21:09:45.285Z,50322.38
2023-04-21T21:12:13.541Z,50325.58
2023-04-21T21:14:41.866Z,50334.78
2023-04-21T21:17:13.184Z,50335.18
2023-04-21T21:19:41.699Z,50318.38
2023-04-21T21:22:10.426Z,50333.98
2023-04-21T21:24:38.654Z,50320.78
2023-04-21T21:27:08.196Z,50343.58
2023-04-21T21:29:36.652Z,50314.39
2023-04-21T21:32:05.206Z,50313.19
2023-04-21T21:34:33.569Z,50311.99
2023-04-21T21:37:01.812Z,50329.58
2023-04-21T21:39:29.979Z,50315.59
2023-04-21T21:41:58.504Z,50308.39
2023-04-21T21:44:26.737Z,50307.59
2023-04-21T21:46:54.902Z,50322.38
2023-04-21T21:49:23.138Z,50313.98
2023-04-21T21:51:52.986Z,50326.78
2023-04-21T21:54:21.557Z,50298.39
2023-04-21T21:56:49.819Z,50316.79
2023-04-21T21:59:18.043Z,50317.59
2023-04-21T22:01:46.357Z,50311.99
2023-04-21T22:04:14.748Z,50326.78
2023-04-21T22:06:45.546Z,50328.38
2023-04-21T22:09:14.125Z,50321.58
2023-04-21T22:11:42.371Z,50316.79
2023-04-21T22:14:21.590Z,50335.98
2023-04-21T22:16:53.418Z,50337.18
2023-04-21T22:19:21.795Z,50333.18
2023-04-21T22:21:50.020Z,50321.59
2023-04-21T22:24:18.539Z,50327.58
2023-04-21T22:26:47.668Z,50325.58
2023-04-21T22:29:15.983Z,50336.38
2023-04-21T22:31:44.362Z,50343.57
2023-04-21T22:34:15.149Z,50342.78
2023-04-21T22:36:43.740Z,50329.59
2023-04-21T22:39:12.005Z,50334.38
2023-04-21T22:41:40.312Z,50336.38
2023-04-21T22:44:09.102Z,50350.77
2023-04-21T22:46:38.023Z,50344.77
2023-04-21T22:49:06.853Z,50347.18
2023-04-21T22:51:35.222Z,50345.98
2023-04-21T22:54:03.829Z,50348.38
2023-04-21T22:56:32.130Z,50367.17
2023-04-21T22:59:00.549Z,50342.38
2023-04-21T23:01:29.514Z,50343.98
2023-04-21T23:03:58.052Z,50351.57
2023-04-21T23:06:26.929Z,50344.38
2023-04-21T23:08:55.976Z,50348.77
2023-04-21T23:11:24.560Z,50363.17
2023-04-21T23:13:52.825Z,50335.98
2023-04-21T23:16:21.159Z,50349.57
2023-04-21T23:18:49.707Z,50357.57
2023-04-21T23:21:18.053Z,50343.18
2023-04-21T23:23:46.412Z,50340.78
2023-04-21T23:26:14.797Z,50343.18
2023-04-21T23:28:42.979Z,50351.57
2023-04-21T23:31:11.370Z,50360.77
2023-04-21T23:33:39.552Z,50357.97
2023-04-21T23:36:07.859Z,50352.77
2023-04-21T23:38:36.185Z,50349.98
2023-04-21T23:41:04.380Z,50340.38
2023-04-21T23:43:34.694Z,50343.57
2023-04-21T23:46:03.639Z,50352.38
2023-04-21T23:48:34.485Z,50337.18
2023-04-21T23:51:02.904Z,50355.17
2023-04-21T23:53:31.380Z,50357.57
2023-04-21T23:55:59.580Z,50346.38
2023-04-21T23:58:28.268Z,50334.78
